sensor_id;sensor_type;location;lat;lon;timestamp;pressure;altitude;pressure_sealevel;temperature;humidity
75549;BME280;64133;56.002;37.208;2024-02-23T00:03:34;99211.91;;;-2.60;87.30
75549;BME280;64133;56.002;37.208;2024-02-23T00:08:40;99216.53;;;-2.56;87.32
75549;BME280;64133;56.002;37.208;2024-02-23T00:13:45;99206.81;;;-2.61;87.41
75549;BME280;64133;56.002;37.208;2024-02-23T00:18:50;99217.97;;;-2.61;87.41
75549;BME280;64133;56.002;37.208;2024-02-23T00:23:55;99214.26;;;-2.52;87.44
75549;BME280;64133;56.002;37.208;2024-02-23T00:29:00;99212.61;;;-2.55;87.41
75549;BME280;64133;56.002;37.208;2024-02-23T00:34:05;99211.07;;;-2.60;87.53
75549;BME280;64133;56.002;37.208;2024-02-23T00:39:10;99214.80;;;-2.56;87.96
75549;BME280;64133;56.002;37.208;2024-02-23T00:44:15;99224.15;;;-2.53;88.09
75549;BME280;64133;56.002;37.208;2024-02-23T00:49:20;99219.98;;;-2.57;88.12
75549;BME280;64133;56.002;37.208;2024-02-23T00:54:25;99224.97;;;-2.51;88.22
75549;BME280;64133;56.002;37.208;2024-02-23T00:59:30;99221.28;;;-2.44;88.17
75549;BME280;64133;56.002;37.208;2024-02-23T01:04:35;99122.33;;;-3.08;87.68
75549;BME280;64133;56.002;37.208;2024-02-23T01:09:40;99223.86;;;-2.44;87.78
75549;BME280;64133;56.002;37.208;2024-02-23T01:14:45;99234.39;;;-2.37;87.74
75549;BME280;64133;56.002;37.208;2024-02-23T01:19:50;99231.52;;;-2.28;87.68
75549;BME280;64133;56.002;37.208;2024-02-23T01:24:55;99234.16;;;-2.29;87.10
75549;BME280;64133;56.002;37.208;2024-02-23T01:30:00;99229.92;;;-2.32;87.16
75549;BME280;64133;56.002;37.208;2024-02-23T01:35:06;99229.06;;;-2.31;87.02
75549;BME280;64133;56.002;37.208;2024-02-23T01:40:11;99227.95;;;-2.23;87.19
75549;BME280;64133;56.002;37.208;2024-02-23T01:45:17;99224.83;;;-2.33;86.79
75549;BME280;64133;56.002;37.208;2024-02-23T01:50:22;99219.58;;;-2.30;86.98
75549;BME280;64133;56.002;37.208;2024-02-23T01:55:27;99216.87;;;-2.27;87.19
75549;BME280;64133;56.002;37.208;2024-02-23T02:00:32;99212.17;;;-2.28;87.15
75549;BME280;64133;56.002;37.208;2024-02-23T02:05:36;99215.14;;;-2.27;87.12
75549;BME280;64133;56.002;37.208;2024-02-23T02:10:41;99213.22;;;-2.20;87.01
75549;BME280;64133;56.002;37.208;2024-02-23T02:15:46;99206.02;;;-2.23;86.98
75549;BME280;64133;56.002;37.208;2024-02-23T02:20:53;99204.73;;;-2.23;86.97
75549;BME280;64133;56.002;37.208;2024-02-23T02:25:58;99200.47;;;-2.24;86.87
75549;BME280;64133;56.002;37.208;2024-02-23T02:31:01;99207.67;;;-2.21;87.09
75549;BME280;64133;56.002;37.208;2024-02-23T02:36:06;99205.63;;;-2.24;86.94
75549;BME280;64133;56.002;37.208;2024-02-23T02:41:11;99205.99;;;-2.22;87.02
75549;BME280;64133;56.002;37.208;2024-02-23T02:46:16;99207.31;;;-2.23;86.99
75549;BME280;64133;56.002;37.208;2024-02-23T02:51:21;99205.69;;;-2.26;86.91
75549;BME280;64133;56.002;37.208;2024-02-23T02:56:26;99214.21;;;-2.24;86.91
75549;BME280;64133;56.002;37.208;2024-02-23T03:01:32;99211.09;;;-2.20;86.97
75549;BME280;64133;56.002;37.208;2024-02-23T03:06:37;99214.06;;;-2.19;86.72
75549;BME280;64133;56.002;37.208;2024-02-23T03:11:42;99219.58;;;-2.17;86.74
75549;BME280;64133;56.002;37.208;2024-02-23T03:16:47;99222.70;;;-2.07;86.77
75549;BME280;64133;56.002;37.208;2024-02-23T03:21:52;99221.73;;;-2.18;86.56
75549;BME280;64133;56.002;37.208;2024-02-23T03:26:57;99232.06;;;-2.18;86.61
75549;BME280;64133;56.002;37.208;2024-02-23T03:32:02;99238.09;;;-2.17;86.67
75549;BME280;64133;56.002;37.208;2024-02-23T03:37:07;99239.92;;;-2.08;86.62
75549;BME280;64133;56.002;37.208;2024-02-23T03:42:12;99245.08;;;-2.08;86.47
75549;BME280;64133;56.002;37.208;2024-02-23T03:47:18;99243.97;;;-2.14;86.55
75549;BME280;64133;56.002;37.208;2024-02-23T03:52:23;99242.11;;;-2.09;86.84
75549;BME280;64133;56.002;37.208;2024-02-23T03:57:28;99241.75;;;-2.11;86.79
75549;BME280;64133;56.002;37.208;2024-02-23T04:02:33;99239.95;;;-2.09;86.70
75549;BME280;64133;56.002;37.208;2024-02-23T04:07:38;99240.31;;;-2.07;86.93
75549;BME280;64133;56.002;37.208;2024-02-23T04:12:43;99244.09;;;-2.04;86.88
75549;BME280;64133;56.002;37.208;2024-02-23T04:17:48;99247.42;;;-2.00;86.83
75549;BME280;64133;56.002;37.208;2024-02-23T04:22:53;99251.77;;;-2.02;86.76
75549;BME280;64133;56.002;37.208;2024-02-23T04:27:58;99260.56;;;-2.08;87.25
75549;BME280;64133;56.002;37.208;2024-02-23T04:33:03;99262.70;;;-2.07;87.46
75549;BME280;64133;56.002;37.208;2024-02-23T04:38:08;99265.81;;;-2.11;87.78
75549;BME280;64133;56.002;37.208;2024-02-23T04:43:13;99268.55;;;-2.02;87.80
75549;BME280;64133;56.002;37.208;2024-02-23T04:48:19;99257.23;;;-1.98;87.77
75549;BME280;64133;56.002;37.208;2024-02-23T04:53:26;99260.17;;;-2.09;87.87
75549;BME280;64133;56.002;37.208;2024-02-23T04:58:31;99260.56;;;-2.08;88.21
75549;BME280;64133;56.002;37.208;2024-02-23T05:03:36;99267.34;;;-2.05;88.48
75549;BME280;64133;56.002;37.208;2024-02-23T05:08:41;99276.29;;;-2.02;88.62
75549;BME280;64133;56.002;37.208;2024-02-23T05:13:46;99272.92;;;-2.04;88.82
75549;BME280;64133;56.002;37.208;2024-02-23T05:18:50;99271.52;;;-2.01;89.31
75549;BME280;64133;56.002;37.208;2024-02-23T05:23:55;99283.25;;;-1.91;89.14
75549;BME280;64133;56.002;37.208;2024-02-23T05:29:00;99292.61;;;-1.88;89.04
75549;BME280;64133;56.002;37.208;2024-02-23T05:34:05;99290.45;;;-1.74;88.82
75549;BME280;64133;56.002;37.208;2024-02-23T05:39:10;99288.23;;;-1.60;88.56
75549;BME280;64133;56.002;37.208;2024-02-23T05:44:15;99302.91;;;-1.73;88.51
75549;BME280;64133;56.002;37.208;2024-02-23T05:49:20;99299.36;;;-1.71;88.58
75549;BME280;64133;56.002;37.208;2024-02-23T05:54:25;99296.69;;;-1.68;88.61
75549;BME280;64133;56.002;37.208;2024-02-23T05:59:30;99304.73;;;-1.77;88.10
75549;BME280;64133;56.002;37.208;2024-02-23T06:04:35;99314.23;;;-1.78;88.62
75549;BME280;64133;56.002;37.208;2024-02-23T06:09:40;99307.17;;;-1.72;88.47
75549;BME280;64133;56.002;37.208;2024-02-23T06:14:45;99313.02;;;-1.67;88.04
75549;BME280;64133;56.002;37.208;2024-02-23T06:19:50;99308.78;;;-1.70;88.37
75549;BME280;64133;56.002;37.208;2024-02-23T06:24:55;99310.72;;;-1.50;88.60
75549;BME280;64133;56.002;37.208;2024-02-23T06:30:00;99318.93;;;-1.64;87.81
75549;BME280;64133;56.002;37.208;2024-02-23T06:35:06;99324.63;;;-1.54;88.25
75549;BME280;64133;56.002;37.208;2024-02-23T06:40:12;99318.54;;;-1.40;88.04
75549;BME280;64133;56.002;37.208;2024-02-23T06:45:17;99328.19;;;-1.45;88.02
75549;BME280;64133;56.002;37.208;2024-02-23T06:50:22;99325.38;;;-1.50;87.77
75549;BME280;64133;56.002;37.208;2024-02-23T06:55:27;99322.03;;;-1.41;88.16
75549;BME280;64133;56.002;37.208;2024-02-23T07:00:32;99322.26;;;-1.35;87.98
75549;BME280;64133;56.002;37.208;2024-02-23T07:05:37;99333.56;;;-1.38;87.81
75549;BME280;64133;56.002;37.208;2024-02-23T07:10:42;99333.76;;;-1.31;87.76
75549;BME280;64133;56.002;37.208;2024-02-23T07:15:47;99342.80;;;-1.31;87.44
75549;BME280;64133;56.002;37.208;2024-02-23T07:20:52;99338.16;;;-1.21;87.54
75549;BME280;64133;56.002;37.208;2024-02-23T07:25:57;99341.61;;;-1.34;87.49
75549;BME280;64133;56.002;37.208;2024-02-23T07:31:02;99335.41;;;-1.16;87.67
75549;BME280;64133;56.002;37.208;2024-02-23T07:36:09;99332.83;;;-1.16;87.46
75549;BME280;64133;56.002;37.208;2024-02-23T07:41:14;99338.21;;;-1.36;87.46
75549;BME280;64133;56.002;37.208;2024-02-23T07:46:18;99332.56;;;-1.34;87.59
75549;BME280;64133;56.002;37.208;2024-02-23T07:51:23;99335.28;;;-1.25;87.38
75549;BME280;64133;56.002;37.208;2024-02-23T07:56:28;99353.11;;;-1.17;87.68
75549;BME280;64133;56.002;37.208;2024-02-23T08:01:34;99349.14;;;-1.28;87.10
75549;BME280;64133;56.002;37.208;2024-02-23T08:06:39;99356.34;;;-1.24;87.42
75549;BME280;64133;56.002;37.208;2024-02-23T08:11:44;99360.51;;;-1.20;87.23
75549;BME280;64133;56.002;37.208;2024-02-23T08:16:49;99361.87;;;-1.21;87.33
75549;BME280;64133;56.002;37.208;2024-02-23T08:21:59;99360.97;;;-0.95;87.18
75549;BME280;64133;56.002;37.208;2024-02-23T08:27:04;99361.81;;;-0.95;86.70
75549;BME280;64133;56.002;37.208;2024-02-23T08:32:10;99359.55;;;-1.04;86.25
75549;BME280;64133;56.002;37.208;2024-02-23T08:37:16;99372.21;;;-1.10;86.53
75549;BME280;64133;56.002;37.208;2024-02-23T08:42:21;99375.09;;;-1.06;86.67
75549;BME280;64133;56.002;37.208;2024-02-23T08:47:26;99379.73;;;-0.79;86.02
75549;BME280;64133;56.002;37.208;2024-02-23T08:52:31;99375.37;;;-0.77;85.79
75549;BME280;64133;56.002;37.208;2024-02-23T08:57:36;99371.59;;;-0.80;85.77
75549;BME280;64133;56.002;37.208;2024-02-23T09:02:41;99342.38;;;-0.82;85.60
75549;BME280;64133;56.002;37.208;2024-02-23T09:07:46;99380.09;;;-0.53;85.13
75549;BME280;64133;56.002;37.208;2024-02-23T09:12:52;99393.98;;;-0.67;84.69
75549;BME280;64133;56.002;37.208;2024-02-23T09:17:57;99394.20;;;-0.61;84.91
75549;BME280;64133;56.002;37.208;2024-02-23T09:23:02;99397.21;;;-0.60;85.00
75549;BME280;64133;56.002;37.208;2024-02-23T09:28:07;99399.34;;;-0.60;84.68
75549;BME280;64133;56.002;37.208;2024-02-23T09:33:12;99394.39;;;-0.54;84.51
75549;BME280;64133;56.002;37.208;2024-02-23T09:38:17;99392.64;;;-0.54;84.77
75549;BME280;64133;56.002;37.208;2024-02-23T09:43:23;99398.56;;;-0.38;84.68
75549;BME280;64133;56.002;37.208;2024-02-23T09:53:48;99383.22;;;-0.09;83.55
75549;BME280;64133;56.002;37.208;2024-02-23T09:58:54;99393.05;;;-0.29;84.33
75549;BME280;64133;56.002;37.208;2024-02-23T10:04:07;99390.50;;;-0.19;84.30
75549;BME280;64133;56.002;37.208;2024-02-23T10:09:13;99401.52;;;-0.02;83.87
75549;BME280;64133;56.002;37.208;2024-02-23T10:14:18;99399.92;;;0.39;83.37
75549;BME280;64133;56.002;37.208;2024-02-23T10:19:23;99410.00;;;0.13;82.48
75549;BME280;64133;56.002;37.208;2024-02-23T10:24:29;99407.50;;;0.44;82.89
75549;BME280;64133;56.002;37.208;2024-02-23T10:29:34;99401.63;;;0.39;82.37
75549;BME280;64133;56.002;37.208;2024-02-23T10:34:43;99406.14;;;0.56;83.21
75549;BME280;64133;56.002;37.208;2024-02-23T10:39:48;99400.52;;;0.12;82.74
75549;BME280;64133;56.002;37.208;2024-02-23T10:44:53;99401.42;;;0.23;83.32
75549;BME280;64133;56.002;37.208;2024-02-23T10:49:58;99407.44;;;0.23;83.32
75549;BME280;64133;56.002;37.208;2024-02-23T10:55:04;99412.44;;;0.60;82.99
75549;BME280;64133;56.002;37.208;2024-02-23T11:00:11;99421.42;;;0.52;82.70
75549;BME280;64133;56.002;37.208;2024-02-23T11:05:25;99416.50;;;0.45;83.10
75549;BME280;64133;56.002;37.208;2024-02-23T11:10:32;99426.05;;;0.55;82.91
75549;BME280;64133;56.002;37.208;2024-02-23T11:26:16;99427.52;;;0.50;83.95
75549;BME280;64133;56.002;37.208;2024-02-23T11:31:23;99432.14;;;0.54;83.60
75549;BME280;64133;56.002;37.208;2024-02-23T11:36:31;99431.69;;;0.55;83.66
75549;BME280;64133;56.002;37.208;2024-02-23T11:41:35;99431.69;;;0.65;83.90
75549;BME280;64133;56.002;37.208;2024-02-23T11:46:40;99429.92;;;0.45;84.09
75549;BME280;64133;56.002;37.208;2024-02-23T11:51:48;99434.89;;;0.39;84.84
75549;BME280;64133;56.002;37.208;2024-02-23T11:56:53;99434.92;;;0.60;85.70
75549;BME280;64133;56.002;37.208;2024-02-23T12:01:58;99435.23;;;0.52;84.72
75549;BME280;64133;56.002;37.208;2024-02-23T12:07:04;99434.83;;;0.41;85.21
75549;BME280;64133;56.002;37.208;2024-02-23T12:12:09;99442.14;;;0.41;85.36
75549;BME280;64133;56.002;37.208;2024-02-23T12:17:15;99435.11;;;0.55;85.78
75549;BME280;64133;56.002;37.208;2024-02-23T12:22:26;99440.95;;;0.60;85.85
75549;BME280;64133;56.002;37.208;2024-02-23T12:27:32;99430.85;;;0.64;85.50
75549;BME280;64133;56.002;37.208;2024-02-23T12:32:37;99436.58;;;0.72;85.70
75549;BME280;64133;56.002;37.208;2024-02-23T12:37:45;99440.99;;;0.70;85.93
75549;BME280;64133;56.002;37.208;2024-02-23T12:42:50;99439.09;;;0.74;85.76
75549;BME280;64133;56.002;37.208;2024-02-23T12:47:55;99428.80;;;0.72;86.24
75549;BME280;64133;56.002;37.208;2024-02-23T12:53:06;99432.50;;;0.77;86.20
75549;BME280;64133;56.002;37.208;2024-02-23T12:58:14;99438.41;;;0.81;86.00
75549;BME280;64133;56.002;37.208;2024-02-23T13:03:20;99439.78;;;0.79;86.17
75549;BME280;64133;56.002;37.208;2024-02-23T13:08:25;99435.66;;;0.73;86.43
75549;BME280;64133;56.002;37.208;2024-02-23T13:13:30;99443.97;;;0.82;86.52
75549;BME280;64133;56.002;37.208;2024-02-23T13:18:35;99452.67;;;0.91;86.30
75549;BME280;64133;56.002;37.208;2024-02-23T13:23:41;99444.44;;;0.91;86.25
75549;BME280;64133;56.002;37.208;2024-02-23T13:28:53;99458.77;;;1.00;86.06
75549;BME280;64133;56.002;37.208;2024-02-23T13:34:00;99455.27;;;0.91;86.05
75549;BME280;64133;56.002;37.208;2024-02-23T13:39:05;99458.46;;;0.87;86.42
75549;BME280;64133;56.002;37.208;2024-02-23T13:44:11;99465.71;;;0.89;86.52
75549;BME280;64133;56.002;37.208;2024-02-23T13:49:18;99468.23;;;0.91;86.52
75549;BME280;64133;56.002;37.208;2024-02-23T13:54:26;99465.78;;;0.88;86.47
75549;BME280;64133;56.002;37.208;2024-02-23T13:59:33;99471.73;;;0.90;86.65
75549;BME280;64133;56.002;37.208;2024-02-23T14:04:41;99459.11;;;0.92;86.55
75549;BME280;64133;56.002;37.208;2024-02-23T14:09:46;99471.81;;;0.88;86.46
75549;BME280;64133;56.002;37.208;2024-02-23T14:14:52;99463.58;;;0.89;86.71
75549;BME280;64133;56.002;37.208;2024-02-23T14:19:57;99470.33;;;0.93;86.77
75549;BME280;64133;56.002;37.208;2024-02-23T14:25:03;99466.74;;;0.85;86.58
75549;BME280;64133;56.002;37.208;2024-02-23T14:30:14;99467.92;;;0.88;86.69
75549;BME280;64133;56.002;37.208;2024-02-23T14:35:21;99469.67;;;0.88;86.74
75549;BME280;64133;56.002;37.208;2024-02-23T14:40:26;99465.97;;;0.83;86.90
75549;BME280;64133;56.002;37.208;2024-02-23T14:45:34;99472.27;;;0.98;86.86
75549;BME280;64133;56.002;37.208;2024-02-23T14:50:41;99469.27;;;0.87;86.79
75549;BME280;64133;56.002;37.208;2024-02-23T14:55:46;99478.41;;;0.85;87.12
75549;BME280;64133;56.002;37.208;2024-02-23T15:00:53;99482.00;;;0.93;87.00
75549;BME280;64133;56.002;37.208;2024-02-23T15:06:06;99478.86;;;0.85;86.72
75549;BME280;64133;56.002;37.208;2024-02-23T15:11:11;99490.80;;;0.89;86.79
75549;BME280;64133;56.002;37.208;2024-02-23T15:16:18;99486.38;;;0.91;86.76
75549;BME280;64133;56.002;37.208;2024-02-23T15:21:25;99493.02;;;0.88;86.57
75549;BME280;64133;56.002;37.208;2024-02-23T15:26:36;99500.38;;;0.87;86.54
75549;BME280;64133;56.002;37.208;2024-02-23T15:31:41;99513.50;;;0.94;86.53
75549;BME280;64133;56.002;37.208;2024-02-23T15:36:47;99522.73;;;1.01;86.31
75549;BME280;64133;56.002;37.208;2024-02-23T15:42:12;99515.64;;;0.94;86.24
75549;BME280;64133;56.002;37.208;2024-02-23T15:47:20;99514.53;;;1.00;86.37
75549;BME280;64133;56.002;37.208;2024-02-23T15:52:25;99518.50;;;1.09;86.25
75549;BME280;64133;56.002;37.208;2024-02-23T15:57:30;99525.45;;;1.08;85.35
75549;BME280;64133;56.002;37.208;2024-02-23T16:02:38;99537.64;;;0.96;85.77
75549;BME280;64133;56.002;37.208;2024-02-23T16:07:45;99539.70;;;0.98;86.01
75549;BME280;64133;56.002;37.208;2024-02-23T16:12:53;99532.61;;;0.91;86.08
75549;BME280;64133;56.002;37.208;2024-02-23T16:17:58;99534.63;;;0.95;86.07
75549;BME280;64133;56.002;37.208;2024-02-23T16:23:04;99538.86;;;0.97;86.09
75549;BME280;64133;56.002;37.208;2024-02-23T16:28:10;99543.33;;;0.94;86.11
75549;BME280;64133;56.002;37.208;2024-02-23T16:33:18;99548.52;;;1.04;86.37
75549;BME280;64133;56.002;37.208;2024-02-23T16:38:24;99541.39;;;0.99;86.00
75549;BME280;64133;56.002;37.208;2024-02-23T16:43:32;99546.19;;;0.98;86.19
75549;BME280;64133;56.002;37.208;2024-02-23T16:48:39;99549.98;;;1.11;86.22
75549;BME280;64133;56.002;37.208;2024-02-23T16:53:44;99546.62;;;1.09;85.85
75549;BME280;64133;56.002;37.208;2024-02-23T16:58:50;99552.64;;;1.10;86.09
75549;BME280;64133;56.002;37.208;2024-02-23T17:03:55;99549.48;;;1.13;85.85
75549;BME280;64133;56.002;37.208;2024-02-23T17:09:01;99553.40;;;1.02;85.97
75549;BME280;64133;56.002;37.208;2024-02-23T17:14:06;99553.88;;;1.11;86.18
75549;BME280;64133;56.002;37.208;2024-02-23T17:19:11;99565.20;;;1.09;85.96
75549;BME280;64133;56.002;37.208;2024-02-23T17:24:16;99559.67;;;1.18;85.79
75549;BME280;64133;56.002;37.208;2024-02-23T17:29:24;99566.07;;;1.09;85.78
75549;BME280;64133;56.002;37.208;2024-02-23T17:34:28;99567.88;;;1.17;85.94
75549;BME280;64133;56.002;37.208;2024-02-23T17:39:33;99577.75;;;1.09;85.89
75549;BME280;64133;56.002;37.208;2024-02-23T17:44:39;99573.05;;;1.07;86.00
75549;BME280;64133;56.002;37.208;2024-02-23T17:49:44;99567.59;;;1.03;85.96
75549;BME280;64133;56.002;37.208;2024-02-23T17:54:49;99560.88;;;1.09;86.06
75549;BME280;64133;56.002;37.208;2024-02-23T17:59:55;99567.09;;;1.05;85.91
75549;BME280;64133;56.002;37.208;2024-02-23T18:05:00;99576.88;;;1.09;85.70
75549;BME280;64133;56.002;37.208;2024-02-23T18:10:06;99574.53;;;1.03;85.85
75549;BME280;64133;56.002;37.208;2024-02-23T18:15:12;99580.95;;;1.04;85.86
75549;BME280;64133;56.002;37.208;2024-02-23T18:20:17;99576.11;;;1.07;85.93
75549;BME280;64133;56.002;37.208;2024-02-23T18:25:23;99575.72;;;1.06;85.94
75549;BME280;64133;56.002;37.208;2024-02-23T18:30:28;99580.84;;;1.07;86.10
75549;BME280;64133;56.002;37.208;2024-02-23T18:35:33;99579.65;;;1.04;86.07
75549;BME280;64133;56.002;37.208;2024-02-23T18:40:38;99578.36;;;1.04;86.10
75549;BME280;64133;56.002;37.208;2024-02-23T18:45:44;99580.75;;;0.98;86.79
75549;BME280;64133;56.002;37.208;2024-02-23T18:50:49;99591.83;;;0.92;86.81
75549;BME280;64133;56.002;37.208;2024-02-23T18:55:54;99592.80;;;0.99;86.90
75549;BME280;64133;56.002;37.208;2024-02-23T19:01:00;99596.23;;;1.00;86.99
75549;BME280;64133;56.002;37.208;2024-02-23T19:06:06;99602.06;;;0.95;87.25
75549;BME280;64133;56.002;37.208;2024-02-23T19:11:11;99603.99;;;0.90;87.24
75549;BME280;64133;56.002;37.208;2024-02-23T19:16:16;99605.84;;;0.98;87.24
75549;BME280;64133;56.002;37.208;2024-02-23T19:21:21;99614.17;;;1.06;87.35
75549;BME280;64133;56.002;37.208;2024-02-23T19:26:29;99617.16;;;1.07;86.88
75549;BME280;64133;56.002;37.208;2024-02-23T19:31:34;99620.55;;;1.09;86.72
75549;BME280;64133;56.002;37.208;2024-02-23T19:36:39;99624.91;;;0.97;86.84
75549;BME280;64133;56.002;37.208;2024-02-23T19:41:45;99620.87;;;1.00;86.69
75549;BME280;64133;56.002;37.208;2024-02-23T19:46:50;99630.19;;;1.06;86.60
75549;BME280;64133;56.002;37.208;2024-02-23T19:51:55;99634.58;;;1.04;86.38
75549;BME280;64133;56.002;37.208;2024-02-23T19:57:00;99640.84;;;1.10;86.36
75549;BME280;64133;56.002;37.208;2024-02-23T20:02:05;99651.27;;;1.30;85.89
75549;BME280;64133;56.002;37.208;2024-02-23T20:07:11;99649.67;;;1.16;85.55
75549;BME280;64133;56.002;37.208;2024-02-23T20:12:18;99653.64;;;1.14;85.67
75549;BME280;64133;56.002;37.208;2024-02-23T20:17:25;99653.25;;;1.13;85.62
75549;BME280;64133;56.002;37.208;2024-02-23T20:22:30;99655.43;;;1.12;85.24
75549;BME280;64133;56.002;37.208;2024-02-23T20:27:38;99658.76;;;1.16;85.78
75549;BME280;64133;56.002;37.208;2024-02-23T20:32:43;99650.37;;;1.09;84.81
75549;BME280;64133;56.002;37.208;2024-02-23T20:37:48;99655.30;;;1.27;84.51
75549;BME280;64133;56.002;37.208;2024-02-23T20:42:53;99667.66;;;1.20;85.45
75549;BME280;64133;56.002;37.208;2024-02-23T20:47:58;99654.10;;;1.02;85.05
75549;BME280;64133;56.002;37.208;2024-02-23T20:53:03;99649.65;;;1.06;85.25
75549;BME280;64133;56.002;37.208;2024-02-23T20:58:08;99648.36;;;0.94;85.15
75549;BME280;64133;56.002;37.208;2024-02-23T21:03:16;99653.33;;;0.88;85.14
75549;BME280;64133;56.002;37.208;2024-02-23T21:08:22;99649.76;;;1.03;85.11
75549;BME280;64133;56.002;37.208;2024-02-23T21:13:27;99656.98;;;0.94;85.29
75549;BME280;64133;56.002;37.208;2024-02-23T21:18:32;99649.38;;;0.78;85.17
75549;BME280;64133;56.002;37.208;2024-02-23T21:23:37;99649.27;;;0.81;85.45
75549;BME280;64133;56.002;37.208;2024-02-23T21:28:42;99651.55;;;0.79;85.15
75549;BME280;64133;56.002;37.208;2024-02-23T21:33:47;99656.83;;;0.75;85.24
75549;BME280;64133;56.002;37.208;2024-02-23T21:38:53;99669.62;;;0.68;85.27
75549;BME280;64133;56.002;37.208;2024-02-23T21:43:58;99671.75;;;0.69;85.47
75549;BME280;64133;56.002;37.208;2024-02-23T21:49:03;99688.91;;;0.85;85.26
75549;BME280;64133;56.002;37.208;2024-02-23T21:54:08;99698.93;;;0.94;84.59
75549;BME280;64133;56.002;37.208;2024-02-23T21:59:13;99697.42;;;0.88;84.40
75549;BME280;64133;56.002;37.208;2024-02-23T22:04:18;99703.91;;;0.88;84.26
75549;BME280;64133;56.002;37.208;2024-02-23T22:09:23;99709.70;;;0.71;84.40
75549;BME280;64133;56.002;37.208;2024-02-23T22:14:28;99721.89;;;0.56;85.00
75549;BME280;64133;56.002;37.208;2024-02-23T22:19:33;99721.02;;;0.57;85.29
75549;BME280;64133;56.002;37.208;2024-02-23T22:24:38;99736.73;;;0.53;85.36
75549;BME280;64133;56.002;37.208;2024-02-23T22:29:43;99744.90;;;0.54;85.79
75549;BME280;64133;56.002;37.208;2024-02-23T22:34:48;99747.88;;;0.55;85.48
75549;BME280;64133;56.002;37.208;2024-02-23T22:39:53;99756.81;;;0.46;85.44
75549;BME280;64133;56.002;37.208;2024-02-23T22:44:58;99758.63;;;0.44;85.51
75549;BME280;64133;56.002;37.208;2024-02-23T22:50:04;99754.55;;;0.37;85.74
75549;BME280;64133;56.002;37.208;2024-02-23T22:55:09;99755.69;;;0.41;85.95
75549;BME280;64133;56.002;37.208;2024-02-23T23:00:15;99753.09;;;0.41;85.67
75549;BME280;64133;56.002;37.208;2024-02-23T23:05:20;99757.91;;;0.39;85.60
75549;BME280;64133;56.002;37.208;2024-02-23T23:10:25;99761.92;;;0.36;85.76
75549;BME280;64133;56.002;37.208;2024-02-23T23:15:30;99753.64;;;0.38;86.15
75549;BME280;64133;56.002;37.208;2024-02-23T23:20:35;99771.63;;;0.42;85.63
75549;BME280;64133;56.002;37.208;2024-02-23T23:25:40;99766.20;;;0.37;86.02
75549;BME280;64133;56.002;37.208;2024-02-23T23:30:45;99768.41;;;0.36;85.94
75549;BME280;64133;56.002;37.208;2024-02-23T23:35:51;99765.13;;;0.31;85.64
75549;BME280;64133;56.002;37.208;2024-02-23T23:40:55;99754.36;;;0.16;86.31
75549;BME280;64133;56.002;37.208;2024-02-23T23:46:00;99756.64;;;0.12;86.43
75549;BME280;64133;56.002;37.208;2024-02-23T23:51:06;99737.52;;;0.16;85.96
75549;BME280;64133;56.002;37.208;2024-02-23T23:56:11;99758.24;;;0.16;88.58
